SBUA/SJL METAR and TAF weather

Enter ICAO airport designator
Station Type Date Time Source
SBUA METAR 2021/10/19 22:00 UTC NOAA

SBUA 192200Z 14003KT 090V180 9999 FEW030 30/23 Q1007


Station Type Date Time Source
SBUA Decoded METAR 2021/10/19 22:00 UTC NOAA

Sao Gabriel Da Cachoeira, Brazil (SBUA) 00-08S 067-05W
Oct 19, 2021 - 06:00 PM EDT / 2021.10.19 2200 UTC
Wind: from the SE (140 degrees) at 3 MPH (3 KT) (direction variable):0
Visibility: greater than 7 mile(s):0
Sky conditions: mostly clear
Temperature: 86 F (30 C)
Heat index: 93.4 F (34.1 C):1
Dew Point: 73 F (23 C)
Relative Humidity: 66%
Pressure (altimeter): 29.74 in. Hg (1007 hPa)
ob: SBUA 192200Z 14003KT 090V180 9999 FEW030 30/23 Q1007
cycle: 22

Station Type Date Time Source
SBUA TAF 2015/12/16 12:56 UTC NOAA

SBUA 161000Z 1612/1624 00000KT 8000 BKN008 FEW025TCU TN25/1612Z TX34/ 1618Z
BECMG 1613/1615 32005KT 9999 BKN015
BECMG 1617/1619 06005KT SCT017 FEW025TCU PROB40 1619/1622 4000 TSRA BKN015 FEW025CB
RMK PDZ

Example: see airport list